Matam, Senegal
Current Conditions -  °F | °C
As of 6:00 PM on Monday 26 Jan 2015 (Local Time) from GOSM Reporting Station
Clear Clear  
Wind Chill: 86°   Ceiling: Unl
Heat Index: 86°   Visibility: 4mi
Dew Point: 34°   Wind: 7mph
Humidity: 15%   Direction: 10°N
Pressure: 29.94"   Gusts: NA
Location:  15.66°N, 13.26°W
Report Text: GOSM 261800Z 01006KT 6000 NSC 30/01 Q1014
Loading
Personal Weather Stations






























Interactive Weather Map New forecast layout! Learn more

10-Day Weather Forecast

Advertisements
Track Severe Weather on mobile